Cambrils, Spain
Current Conditions -  °F | °C
As of 11:00 AM on Sunday 26 Oct 2014 (Local Time) from LERS Reporting Station
Few Clouds Few Clouds  
Wind Chill: 72°   Ceiling: Unl
Heat Index: 72°   Visibility: 6mi
Dew Point: 59°   Wind: 6mph
Humidity: 64%   Direction: 30°NNE
Pressure: 30.21"   Gusts: NA
Location:  41.07°N, 1.05°E
Report Text: LERS 260900Z 03005KT 350V070 9999 FEW025 22/15 Q1023
Loading
Personal Weather Stations






























Interactive Weather Map
Tropical Storm Tracking
New forecast layout! Learn more

10-Day Weather Forecast

Advertisements
Track Severe Weather on mobile